Time;durP1;ratioP1;P1;durP2;ratioP2;P2;SDS_P1;SDS_P2;PMS_P1;PMS_P2;Temp;Humidity;BMP_temperature;BMP_pressure;BME280_temperature;BME280_humidity;BME280_pressure;Samples;Min_cycle;Max_cycle;Signal;HPM_P1;HPM_P2
2022/05/21 00:02:13;;;;;;;11.23;4.43;;;10.40;99.90;;;;;;5063086;28;20120;-58
2022/05/21 00:04:41;;;;;;;10.65;4.35;;;10.50;99.90;;;;;;5041840;28;20501;-58
2022/05/21 00:07:11;;;;;;;11.23;4.80;;;10.40;99.90;;;;;;5053327;28;20078;-57
2022/05/21 00:09:37;;;;;;;8.70;4.50;;;10.50;99.90;;;;;;5052445;28;20045;-58
2022/05/21 00:12:04;;;;;;;9.77;4.38;;;10.50;99.90;;;;;;5053916;28;20496;-59
2022/05/21 00:14:30;;;;;;;9.15;4.75;;;10.50;99.90;;;;;;5053769;28;20037;-59
2022/05/21 00:16:56;;;;;;;8.73;4.85;;;10.50;99.90;;;;;;5053048;28;20040;-58
2022/05/21 00:19:22;;;;;;;11.90;5.20;;;10.50;99.90;;;;;;5051188;28;20120;-58
2022/05/21 00:21:48;;;;;;;10.25;5.75;;;10.50;99.90;;;;;;5052281;28;20058;-59
2022/05/21 00:24:14;;;;;;;11.23;5.63;;;10.50;99.90;;;;;;5033326;28;20051;-59
2022/05/21 00:26:40;;;;;;;12.60;5.68;;;10.50;99.90;;;;;;5053667;28;20036;-59
2022/05/21 00:29:06;;;;;;;14.40;6.30;;;10.50;99.90;;;;;;5048478;28;20513;-57
2022/05/21 00:31:31;;;;;;;10.98;6.88;;;10.50;99.90;;;;;;5050571;28;20355;-58
2022/05/21 00:33:57;;;;;;;14.73;6.75;;;10.50;99.90;;;;;;5054615;28;20044;-57
2022/05/21 00:36:23;;;;;;;14.18;6.78;;;10.50;99.90;;;;;;5056032;28;20050;-59
2022/05/21 00:38:49;;;;;;;16.33;7.57;;;10.50;99.90;;;;;;5054760;28;20491;-58
2022/05/21 00:41:18;;;;;;;15.15;7.63;;;10.60;99.90;;;;;;5020151;28;20056;-58
2022/05/21 00:43:54;;;;;;;13.57;8.32;;;10.60;99.90;;;;;;5052435;28;20127;-57
2022/05/21 00:46:26;;;;;;;13.98;8.57;;;10.60;99.90;;;;;;5047209;28;20098;-59
2022/05/21 00:49:39;;;;;;;17.77;9.38;;;10.70;99.90;;;;;;5051618;28;20060;-58
2022/05/21 00:52:12;;;;;;;17.73;10.27;;;10.70;99.90;;;;;;5045253;28;20124;-59
2022/05/21 00:54:43;;;;;;;21.45;10.75;;;10.70;99.90;;;;;;5030959;28;20045;-57
2022/05/21 00:57:14;;;;;;;23.20;11.93;;;10.80;99.90;;;;;;5027777;28;20048;-59
2022/05/21 00:59:48;;;;;;;24.50;12.32;;;10.80;99.90;;;;;;5046037;28;20049;-58
2022/05/21 01:02:52;;;;;;;24.27;12.40;;;10.90;99.90;;;;;;5049604;28;20095;-59
2022/05/21 01:05:21;;;;;;;22.60;12.38;;;10.90;99.90;;;;;;5051304;28;20113;-58
2022/05/21 01:07:50;;;;;;;21.17;11.95;;;10.90;99.90;;;;;;5049013;28;20165;-58
2022/05/21 01:10:20;;;;;;;19.98;12.15;;;11.00;99.90;;;;;;5048569;28;20052;-57
2022/05/21 01:12:52;;;;;;;23.45;13.20;;;11.00;99.90;;;;;;5049110;28;20482;-58
2022/05/21 01:15:23;;;;;;;25.02;12.57;;;11.00;99.90;;;;;;5030005;28;20471;-58
2022/05/21 01:17:49;;;;;;;23.70;13.77;;;11.10;99.90;;;;;;5054243;28;20127;-59
2022/05/21 01:20:19;;;;;;;26.60;14.23;;;11.10;99.90;;;;;;5033505;28;20044;-58
2022/05/21 01:22:46;;;;;;;19.50;13.90;;;11.00;99.90;;;;;;5032889;28;20053;-59
2022/05/21 01:25:13;;;;;;;25.83;15.73;;;11.10;99.90;;;;;;5018436;28;20056;-58
2022/05/21 01:27:40;;;;;;;28.80;15.65;;;11.10;99.90;;;;;;5051951;28;20526;-58
2022/05/21 01:30:10;;;;;;;29.42;16.10;;;11.10;99.90;;;;;;5030412;28;20548;-58
2022/05/21 01:32:36;;;;;;;26.10;16.02;;;11.10;99.90;;;;;;5050394;28;20048;-57
2022/05/21 01:35:03;;;;;;;28.17;16.85;;;11.20;99.90;;;;;;5031465;28;20045;-58
2022/05/21 01:37:30;;;;;;;29.05;17.08;;;11.20;99.90;;;;;;5031825;28;20052;-58
2022/05/21 01:39:56;;;;;;;29.52;16.85;;;11.30;99.90;;;;;;5029591;28;20133;-58
2022/05/21 01:42:23;;;;;;;33.90;16.65;;;11.20;99.90;;;;;;5040760;28;20056;-59
2022/05/21 01:44:52;;;;;;;26.65;16.52;;;11.30;99.90;;;;;;5050069;28;20512;-58
2022/05/21 01:47:19;;;;;;;27.73;16.27;;;11.30;99.90;;;;;;5047839;28;20048;-57
2022/05/21 01:49:45;;;;;;;26.23;18.10;;;11.30;99.90;;;;;;5048966;28;20131;-57
2022/05/21 01:52:13;;;;;;;29.75;16.73;;;11.40;99.90;;;;;;5047540;28;20040;-59
2022/05/21 01:54:39;;;;;;;30.13;17.33;;;11.40;99.90;;;;;;5051549;28;20051;-58
2022/05/21 01:57:06;;;;;;;27.15;17.58;;;11.40;99.90;;;;;;5051317;28;20036;-58
2022/05/21 01:59:32;;;;;;;33.15;18.05;;;11.50;99.90;;;;;;5045376;28;20050;-58
2022/05/21 02:01:59;;;;;;;30.83;18.75;;;11.50;99.90;;;;;;5051908;28;20044;-58
2022/05/21 02:04:25;;;;;;;36.55;19.00;;;11.50;99.90;;;;;;5052386;28;20044;-58
2022/05/21 02:06:50;;;;;;;32.55;19.52;;;11.60;99.90;;;;;;5033278;28;20507;-58
2022/05/21 02:09:17;;;;;;;30.85;19.80;;;11.60;99.90;;;;;;5014177;28;20061;-59
2022/05/21 02:11:43;;;;;;;33.53;19.90;;;11.60;99.90;;;;;;5033333;28;20041;-58
2022/05/21 02:14:09;;;;;;;32.83;20.50;;;11.60;99.90;;;;;;5029853;28;20073;-58
2022/05/21 02:16:36;;;;;;;33.63;20.33;;;11.70;99.90;;;;;;5032358;28;20045;-57
2022/05/21 02:19:04;;;;;;;35.00;20.27;;;11.70;99.90;;;;;;5031556;28;20523;-58
2022/05/21 02:21:32;;;;;;;35.53;20.48;;;11.70;99.90;;;;;;5030265;28;20053;-58
2022/05/21 02:23:58;;;;;;;35.50;20.92;;;11.80;99.90;;;;;;5003951;28;20207;-57
2022/05/21 02:26:24;;;;;;;31.80;19.58;;;11.80;99.90;;;;;;5030119;28;20124;-58
2022/05/21 02:28:50;;;;;;;36.63;20.88;;;11.80;99.90;;;;;;5029570;28;20132;-58
2022/05/21 02:31:16;;;;;;;39.20;20.83;;;11.90;99.90;;;;;;5028997;28;20384;-58
2022/05/21 02:33:43;;;;;;;39.63;21.20;;;11.90;99.90;;;;;;5030688;28;20131;-58
2022/05/21 02:36:10;;;;;;;40.28;20.42;;;12.00;99.90;;;;;;5029309;28;20080;-58
2022/05/21 02:41:21;;;;;;;36.72;19.10;;;12.10;99.90;;;;;;5025967;28;26525;-59
2022/05/21 02:43:48;;;;;;;36.92;18.05;;;12.10;99.90;;;;;;5036039;28;20107;-59
2022/05/21 02:46:15;;;;;;;36.85;18.33;;;12.20;99.90;;;;;;5021155;28;20041;-57
2022/05/21 02:48:41;;;;;;;36.53;16.17;;;12.20;99.90;;;;;;5041485;28;20128;-61
2022/05/21 02:51:09;;;;;;;36.65;15.80;;;12.30;99.90;;;;;;5032951;28;20069;-58
2022/05/21 02:53:35;;;;;;;31.70;14.38;;;12.30;99.90;;;;;;5037026;28;20041;-59
2022/05/21 02:56:09;;;;;;;35.03;14.27;;;12.30;99.90;;;;;;5019251;28;20068;-57
2022/05/21 02:58:36;;;;;;;30.98;13.23;;;12.40;99.90;;;;;;5034997;28;20042;-59
2022/05/21 03:01:03;;;;;;;34.90;13.25;;;12.40;99.90;;;;;;5036964;28;20462;-59
2022/05/21 03:03:29;;;;;;;32.45;12.98;;;12.40;99.90;;;;;;5032859;28;20036;-59
2022/05/21 03:05:55;;;;;;;31.60;11.35;;;12.50;99.90;;;;;;5019216;28;20464;-58
2022/05/21 03:11:05;;;;;;;32.88;11.00;;;12.50;99.90;;;;;;5058134;28;20048;-59
2022/05/21 03:13:34;;;;;;;30.45;10.85;;;12.60;99.90;;;;;;5059179;28;20052;-59
2022/05/21 03:16:00;;;;;;;28.05;9.77;;;12.60;99.90;;;;;;5027512;28;20041;-58
2022/05/21 03:18:26;;;;;;;26.35;9.02;;;12.60;99.90;;;;;;5057125;28;20041;-58
2022/05/21 03:20:52;;;;;;;26.33;8.82;;;12.70;99.90;;;;;;5045043;28;20111;-58
2022/05/21 03:23:18;;;;;;;29.13;9.57;;;12.60;99.90;;;;;;5051613;28;20108;-59
2022/05/21 03:25:44;;;;;;;25.15;7.65;;;12.70;99.90;;;;;;5053748;28;20049;-58
2022/05/21 03:28:15;;;;;;;28.55;8.02;;;12.70;99.90;;;;;;5042731;28;20521;-58
2022/05/21 03:30:41;;;;;;;23.38;7.30;;;12.70;99.90;;;;;;5026964;28;20055;-59
2022/05/21 03:33:07;;;;;;;20.30;7.32;;;12.80;99.90;;;;;;5051888;28;20037;-58
2022/05/21 03:35:33;;;;;;;28.75;7.95;;;12.70;99.90;;;;;;5053501;28;20055;-57
2022/05/21 03:38:00;;;;;;;28.17;7.22;;;12.80;99.90;;;;;;5051845;28;20072;-58
2022/05/21 03:40:28;;;;;;;24.13;6.68;;;12.80;99.90;;;;;;5054161;28;20044;-59
2022/05/21 03:42:54;;;;;;;22.17;6.68;;;12.80;99.90;;;;;;5055536;28;20072;-59
2022/05/21 03:45:21;;;;;;;23.88;7.20;;;12.80;99.90;;;;;;5050674;28;20158;-58
2022/05/21 03:47:47;;;;;;;23.77;6.30;;;12.90;99.90;;;;;;5056458;28;21061;-59
2022/05/21 03:50:17;;;;;;;29.65;7.47;;;12.90;99.90;;;;;;5038274;28;20033;-58
2022/05/21 03:52:43;;;;;;;25.83;6.22;;;12.90;99.90;;;;;;5053293;28;20052;-58
2022/05/21 03:55:10;;;;;;;27.50;5.97;;;12.90;99.90;;;;;;5042717;28;20409;-59
2022/05/21 03:57:36;;;;;;;22.08;6.78;;;12.90;99.90;;;;;;5054726;28;20547;-58
2022/05/21 04:00:05;;;;;;;22.38;6.30;;;12.90;99.90;;;;;;5052471;28;20383;-59
2022/05/21 04:02:32;;;;;;;25.23;5.80;;;13.00;99.90;;;;;;5058076;28;20414;-58
2022/05/21 04:04:59;;;;;;;23.25;6.10;;;13.00;99.90;;;;;;5056421;28;20567;-59
2022/05/21 04:07:25;;;;;;;22.85;6.00;;;13.00;99.90;;;;;;5058452;28;20051;-56
2022/05/21 04:09:50;;;;;;;24.27;5.93;;;13.00;99.90;;;;;;5060566;28;20510;-58
2022/05/21 04:12:17;;;;;;;28.20;5.95;;;13.00;99.90;;;;;;5064259;28;20044;-59
2022/05/21 04:14:43;;;;;;;19.63;5.53;;;13.00;99.90;;;;;;5062798;28;20040;-59
2022/05/21 04:17:13;;;;;;;22.75;5.45;;;13.10;99.90;;;;;;5060301;28;20489;-59
2022/05/21 04:19:40;;;;;;;16.92;5.22;;;13.10;99.90;;;;;;5061351;28;20439;-59
2022/05/21 04:22:07;;;;;;;23.98;4.95;;;13.10;99.90;;;;;;5060986;28;20052;-57
2022/05/21 04:24:33;;;;;;;22.33;5.40;;;13.10;99.90;;;;;;5060990;28;21546;-59
2022/05/21 04:26:59;;;;;;;16.27;5.20;;;13.10;99.90;;;;;;5043787;28;20059;-58
2022/05/21 04:29:25;;;;;;;18.75;4.97;;;13.10;99.90;;;;;;5060836;28;20032;-59
2022/05/21 04:31:52;;;;;;;19.70;4.22;;;13.10;99.90;;;;;;5058804;28;20103;-57
2022/05/21 04:34:18;;;;;;;15.10;4.35;;;13.10;99.90;;;;;;5058772;28;20122;-58
2022/05/21 04:36:43;;;;;;;20.35;4.60;;;13.10;99.90;;;;;;5058268;28;20036;-58
2022/05/21 04:39:09;;;;;;;16.92;4.45;;;13.10;99.90;;;;;;5054302;28;20052;-58
2022/05/21 04:41:35;;;;;;;20.63;4.18;;;13.10;99.90;;;;;;5061968;28;20501;-59
2022/05/21 04:44:03;;;;;;;14.40;3.80;;;13.10;99.90;;;;;;5058772;28;20044;-58
2022/05/21 04:46:30;;;;;;;20.40;4.13;;;13.10;99.90;;;;;;5059447;28;20130;-58
2022/05/21 04:48:56;;;;;;;16.20;3.85;;;13.10;99.90;;;;;;5043329;28;20052;-59
2022/05/21 04:51:22;;;;;;;22.55;5.10;;;13.10;99.90;;;;;;5060309;28;20040;-58
2022/05/21 04:53:48;;;;;;;18.10;3.95;;;13.10;99.90;;;;;;5054920;28;20080;-59
2022/05/21 04:56:14;;;;;;;16.08;4.03;;;13.10;99.90;;;;;;5061684;28;20032;-58
2022/05/21 04:58:40;;;;;;;21.88;4.15;;;13.10;99.90;;;;;;5062666;28;20102;-58
2022/05/21 05:01:07;;;;;;;14.23;3.90;;;13.20;99.90;;;;;;5037936;28;20055;-58
2022/05/21 05:03:33;;;;;;;22.55;4.75;;;13.20;99.90;;;;;;5043770;28;20464;-58
2022/05/21 05:06:00;;;;;;;13.55;3.85;;;13.20;99.90;;;;;;5056510;28;20502;-57
2022/05/21 05:08:26;;;;;;;11.73;3.60;;;13.20;99.90;;;;;;5055016;28;20048;-58
2022/05/21 05:10:52;;;;;;;18.15;3.55;;;13.20;99.90;;;;;;5053436;28;20037;-58
2022/05/21 05:13:18;;;;;;;14.23;4.05;;;13.20;99.90;;;;;;5055732;28;20041;-59
2022/05/21 05:15:46;;;;;;;21.10;4.55;;;13.20;99.90;;;;;;5051481;28;20466;-58
2022/05/21 05:18:18;;;;;;;15.20;4.00;;;13.30;99.90;;;;;;5052970;28;20041;-58
2022/05/21 05:20:44;;;;;;;12.48;3.90;;;13.30;99.90;;;;;;5055821;28;20036;-58
2022/05/21 05:23:10;;;;;;;14.30;3.63;;;13.30;99.90;;;;;;5054416;28;20045;-57
2022/05/21 05:25:37;;;;;;;15.70;3.65;;;13.30;99.90;;;;;;5053748;28;20126;-57
2022/05/21 05:28:03;;;;;;;17.83;4.07;;;13.30;99.90;;;;;;5053884;28;20053;-58
2022/05/21 05:30:29;;;;;;;15.48;3.15;;;13.30;99.90;;;;;;5053521;28;20509;-58
2022/05/21 05:32:55;;;;;;;13.73;3.30;;;13.40;99.90;;;;;;5049399;28;20047;-58
2022/05/21 05:35:22;;;;;;;14.75;3.40;;;13.40;99.90;;;;;;5052650;28;20049;-59
2022/05/21 05:37:48;;;;;;;14.93;3.42;;;13.40;99.90;;;;;;5053749;28;20044;-58
2022/05/21 05:40:18;;;;;;;13.85;3.70;;;13.40;99.90;;;;;;5051900;28;20052;-58
2022/05/21 05:42:44;;;;;;;15.57;3.13;;;13.50;99.90;;;;;;5053959;28;20040;-58
2022/05/21 05:45:14;;;;;;;18.38;3.83;;;13.50;99.90;;;;;;5035424;28;20053;-59
2022/05/21 05:47:40;;;;;;;12.85;3.33;;;13.50;99.90;;;;;;5058151;28;20051;-58
2022/05/21 05:50:07;;;;;;;17.67;4.20;;;13.50;99.90;;;;;;5050194;28;20104;-59
2022/05/21 05:52:33;;;;;;;14.95;3.85;;;13.50;99.90;;;;;;5046090;28;20063;-58
2022/05/21 05:54:59;;;;;;;14.80;3.55;;;13.50;99.90;;;;;;5052377;28;20124;-57
2022/05/21 05:57:25;;;;;;;12.68;3.53;;;13.60;99.90;;;;;;5052642;28;20467;-57
2022/05/21 05:59:51;;;;;;;14.15;3.58;;;13.60;99.90;;;;;;5051804;28;20044;-58
2022/05/21 06:05:08;;;;;;;18.40;4.05;;;13.70;99.90;;;;;;5049643;28;20240;-60
2022/05/21 06:07:39;;;;;;;20.80;3.95;;;13.70;99.90;;;;;;5039043;28;20045;-59
2022/05/21 06:10:06;;;;;;;13.52;3.60;;;13.70;99.90;;;;;;5051795;28;20053;-59
2022/05/21 06:12:32;;;;;;;17.23;3.92;;;13.70;99.90;;;;;;5053674;28;20036;-59
2022/05/21 06:14:58;;;;;;;21.20;3.88;;;13.80;99.90;;;;;;5053913;28;20041;-59
2022/05/21 06:17:25;;;;;;;12.27;3.78;;;13.80;99.90;;;;;;5052408;28;20052;-58
2022/05/21 06:19:54;;;;;;;13.00;3.83;;;13.90;99.90;;;;;;5034028;28;20116;-60
2022/05/21 06:22:20;;;;;;;18.48;3.67;;;14.00;99.90;;;;;;5035777;28;20061;-59
2022/05/21 06:24:46;;;;;;;18.27;3.70;;;14.00;99.90;;;;;;5031733;28;20060;-60
2022/05/21 06:27:11;;;;;;;14.95;3.60;;;14.00;99.90;;;;;;5050752;28;20083;-58
2022/05/21 06:29:37;;;;;;;20.25;3.63;;;14.10;99.90;;;;;;5035569;28;20052;-59
2022/05/21 06:32:07;;;;;;;14.60;3.28;;;14.20;99.90;;;;;;5027535;28;20533;-60
2022/05/21 06:34:36;;;;;;;15.48;3.38;;;14.30;99.90;;;;;;5053916;28;20091;-58
2022/05/21 06:37:04;;;;;;;14.80;3.58;;;14.30;99.90;;;;;;5055709;28;20064;-60
2022/05/21 06:39:32;;;;;;;13.90;3.03;;;14.30;99.90;;;;;;5050086;28;20053;-60
2022/05/21 06:41:59;;;;;;;12.30;3.30;;;14.30;99.90;;;;;;5036171;28;20484;-58
2022/05/21 06:44:25;;;;;;;14.77;3.65;;;14.20;99.90;;;;;;5049140;28;20048;-60
2022/05/21 06:46:52;;;;;;;17.50;3.58;;;14.20;99.90;;;;;;5028898;28;20061;-58
2022/05/21 06:49:18;;;;;;;16.75;3.97;;;14.30;99.90;;;;;;5040722;28;20552;-58
2022/05/21 06:51:44;;;;;;;19.23;3.85;;;14.30;99.90;;;;;;5051973;28;20041;-59
2022/05/21 06:54:10;;;;;;;20.52;3.83;;;14.30;99.90;;;;;;5050325;28;20567;-59
2022/05/21 06:56:41;;;;;;;15.50;3.20;;;14.40;99.90;;;;;;5025210;28;20083;-59
2022/05/21 06:59:07;;;;;;;15.07;3.97;;;14.40;99.90;;;;;;5053469;28;20145;-59
2022/05/21 07:01:33;;;;;;;14.95;3.63;;;14.50;99.90;;;;;;5052258;28;20036;-59
2022/05/21 07:03:59;;;;;;;22.30;3.63;;;14.50;99.90;;;;;;5028780;28;20051;-59
2022/05/21 07:09:09;;;;;;;12.35;3.83;;;14.60;99.90;;;;;;5035378;28;20053;-59
2022/05/21 07:11:37;;;;;;;13.02;3.95;;;14.70;99.90;;;;;;5037068;28;20128;-58
2022/05/21 07:14:03;;;;;;;17.17;3.90;;;14.90;99.90;;;;;;5030149;28;20037;-59
2022/05/21 07:16:30;;;;;;;12.68;3.70;;;14.90;99.90;;;;;;5013319;28;20037;-60
2022/05/21 07:18:56;;;;;;;19.02;3.30;;;14.90;99.90;;;;;;5015620;28;20136;-61
2022/05/21 07:21:22;;;;;;;12.77;3.25;;;14.90;99.90;;;;;;5015234;28;20053;-60
2022/05/21 07:23:49;;;;;;;22.00;4.10;;;14.90;99.90;;;;;;5014466;28;20048;-55
2022/05/21 07:26:16;;;;;;;20.83;3.65;;;14.90;99.90;;;;;;5032962;28;20041;-58
2022/05/21 07:28:42;;;;;;;15.98;3.33;;;14.80;99.90;;;;;;5030333;28;20049;-58
2022/05/21 07:31:08;;;;;;;17.08;3.65;;;14.90;99.90;;;;;;5035911;28;20037;-58
2022/05/21 07:33:34;;;;;;;13.02;3.10;;;14.90;99.90;;;;;;5038971;28;20040;-58
2022/05/21 07:36:00;;;;;;;15.63;3.40;;;15.00;99.90;;;;;;5020104;28;20044;-59
2022/05/21 07:38:26;;;;;;;18.67;3.92;;;15.10;99.90;;;;;;5034994;28;20767;-58
2022/05/21 07:40:53;;;;;;;14.77;3.90;;;15.20;99.90;;;;;;5038839;28;20049;-57
2022/05/21 07:43:21;;;;;;;16.95;2.92;;;15.20;99.90;;;;;;5035062;28;20110;-57
2022/05/21 07:45:47;;;;;;;24.80;5.00;;;15.20;99.90;;;;;;5037072;28;20500;-58
2022/05/21 07:48:18;;;;;;;11.20;3.10;;;15.20;99.90;;;;;;5040484;28;20855;-58
2022/05/21 07:50:47;;;;;;;14.13;3.08;;;15.20;99.90;;;;;;5039141;28;20067;-58
2022/05/21 07:53:15;;;;;;;14.55;3.20;;;15.30;99.90;;;;;;5041985;28;20051;-59
2022/05/21 07:55:46;;;;;;;13.18;3.47;;;15.30;99.90;;;;;;5026778;28;20491;-58
2022/05/21 07:58:12;;;;;;;15.52;3.50;;;15.40;99.90;;;;;;5033510;28;20099;-59
2022/05/21 08:00:38;;;;;;;14.70;3.97;;;15.40;99.90;;;;;;5030876;28;20105;-59
2022/05/21 08:03:05;;;;;;;17.33;3.10;;;15.50;99.90;;;;;;5031216;28;20052;-59
2022/05/21 08:05:31;;;;;;;13.40;3.30;;;15.60;99.90;;;;;;5037443;28;20079;-58
2022/05/21 08:07:56;;;;;;;12.23;3.30;;;15.70;99.90;;;;;;5049321;28;20091;-59
2022/05/21 08:10:23;;;;;;;9.23;2.40;;;15.70;99.90;;;;;;5055661;28;20119;-59
2022/05/21 08:12:50;;;;;;;11.10;2.80;;;15.70;99.90;;;;;;5053933;28;20107;-59
2022/05/21 08:15:18;;;;;;;15.88;2.88;;;15.70;99.90;;;;;;5053963;28;20081;-59
2022/05/21 08:17:44;;;;;;;14.07;2.65;;;15.80;99.90;;;;;;5050289;28;20074;-59
2022/05/21 08:20:11;;;;;;;16.58;3.20;;;15.90;99.90;;;;;;5054541;28;20410;-59
2022/05/21 08:28:08;;;;;;;13.55;3.03;;;15.90;99.90;;;;;;5031009;28;20250;-60
2022/05/21 08:30:34;;;;;;;13.00;2.60;;;15.90;99.90;;;;;;5055381;28;20090;-60
2022/05/21 08:33:04;;;;;;;8.90;2.70;;;15.90;99.90;;;;;;5050081;28;20055;-59
2022/05/21 08:35:30;;;;;;;17.00;3.30;;;15.90;99.90;;;;;;5034459;28;20121;-58
2022/05/21 08:37:57;;;;;;;15.10;3.13;;;16.00;99.90;;;;;;5051116;28;20135;-59
2022/05/21 08:40:30;;;;;;;11.32;2.92;;;15.90;99.90;;;;;;5051280;28;20093;-59
2022/05/21 08:42:58;;;;;;;11.40;2.67;;;15.90;99.90;;;;;;5034234;28;20044;-59
2022/05/21 08:45:41;;;;;;;12.65;3.13;;;15.90;99.90;;;;;;5057926;28;20052;-58
2022/05/21 08:48:09;;;;;;;13.00;3.25;;;15.90;99.90;;;;;;5037862;28;20040;-58
2022/05/21 08:50:46;;;;;;;15.60;2.85;;;16.00;99.90;;;;;;5046918;28;20102;-59
2022/05/21 08:53:17;;;;;;;14.35;2.85;;;16.10;99.90;;;;;;5051084;28;20088;-58
2022/05/21 08:55:46;;;;;;;16.27;3.08;;;16.20;99.90;;;;;;5042706;28;20121;-59
2022/05/21 08:58:42;;;;;;;15.32;2.95;;;16.20;99.90;;;;;;5050702;28;20079;-59
2022/05/21 09:01:15;;;;;;;11.13;2.92;;;16.20;99.90;;;;;;5050618;28;20041;-58
2022/05/21 09:03:42;;;;;;;19.48;3.05;;;16.10;99.90;;;;;;5051538;28;20052;-60
2022/05/21 09:06:23;;;;;;;16.88;3.08;;;16.00;99.90;;;;;;5048849;28;21326;-58
2022/05/21 09:09:17;;;;;;;14.90;3.05;;;15.90;99.90;;;;;;5051069;28;20055;-59
2022/05/21 09:11:46;;;;;;;15.02;3.65;;;15.90;99.90;;;;;;5049249;28;20548;-59
2022/05/21 09:14:42;;;;;;;10.65;3.15;;;15.90;99.90;;;;;;5053062;28;20533;-60
2022/05/21 09:17:21;;;;;;;13.13;2.58;;;15.90;99.90;;;;;;5045272;28;20049;-60
2022/05/21 09:19:59;;;;;;;12.45;2.90;;;16.10;99.90;;;;;;5045261;28;20048;-59
2022/05/21 09:22:26;;;;;;;16.40;3.08;;;16.20;99.90;;;;;;5048310;28;20052;-59
2022/05/21 09:24:57;;;;;;;12.27;2.70;;;16.30;99.90;;;;;;5048293;28;20044;-60
2022/05/21 09:27:38;;;;;;;8.68;2.80;;;16.40;99.90;;;;;;5032094;28;20045;-59
2022/05/21 09:30:16;;;;;;;14.77;2.88;;;16.60;99.90;;;;;;5050616;28;20048;-60
2022/05/21 09:32:46;;;;;;;16.20;2.95;;;16.60;99.90;;;;;;5055461;28;20045;-59
2022/05/21 09:35:23;;;;;;;9.77;3.25;;;16.60;99.90;;;;;;5047415;28;20470;-59
2022/05/21 09:37:49;;;;;;;9.52;2.85;;;16.70;99.90;;;;;;5049709;28;20444;-60
2022/05/21 09:40:33;;;;;;;12.88;2.90;;;16.90;99.90;;;;;;5046267;28;20091;-59
2022/05/21 09:45:46;;;;;;;13.50;2.78;;;17.00;99.90;;;;;;5049530;28;20619;-61
2022/05/21 09:48:14;;;;;;;13.63;3.47;;;16.90;99.90;;;;;;5052625;28;20082;-58
2022/05/21 09:50:57;;;;;;;13.70;3.13;;;16.90;99.90;;;;;;5048355;28;20130;-59
2022/05/21 09:53:40;;;;;;;15.35;2.70;;;16.90;99.90;;;;;;5029060;28;20098;-59
2022/05/21 09:56:08;;;;;;;;;;;16.90;99.90;;;;;;5049979;28;20102;-58
2022/05/21 09:58:41;;;;;;;9.13;2.58;;;17.00;99.90;;;;;;5047603;28;20174;-60
2022/05/21 10:01:11;;;;;;;11.82;2.20;;;17.10;99.90;;;;;;5049322;28;20044;-60
2022/05/21 10:03:53;;;;;;;10.77;2.28;;;17.10;99.90;;;;;;5032072;28;20517;-59
2022/05/21 10:06:25;;;;;;;10.50;2.47;;;17.20;99.90;;;;;;5045490;28;21018;-58
2022/05/21 10:12:00;;;;;;;11.13;2.45;;;17.40;99.90;;;;;;5022182;28;20044;-60
2022/05/21 10:14:43;;;;;;;12.40;2.50;;;17.30;99.90;;;;;;5053135;28;20045;-59
2022/05/21 10:17:23;;;;;;;12.63;2.53;;;17.20;99.90;;;;;;5049871;28;20171;-58
2022/05/21 10:20:31;;;;;;;10.93;2.30;;;17.20;99.90;;;;;;5033800;28;20093;-60
2022/05/21 10:23:19;;;;;;;8.55;2.15;;;17.30;99.90;;;;;;5045024;28;20049;-57
2022/05/21 10:26:01;;;;;;;11.00;2.78;;;17.30;99.90;;;;;;5046930;28;20044;-59
2022/05/21 10:28:56;;;;;;;14.52;2.90;;;17.10;99.90;;;;;;5047743;28;20430;-59
2022/05/21 10:31:40;;;;;;;9.82;2.38;;;17.30;99.90;;;;;;5047217;28;20385;-57
2022/05/21 10:34:22;;;;;;;12.23;2.40;;;17.40;99.90;;;;;;5033186;28;20119;-57
2022/05/21 10:37:08;;;;;;;13.48;2.55;;;17.80;99.90;;;;;;5048716;28;20048;-57
2022/05/21 10:39:56;;;;;;;8.15;2.20;;;18.00;99.90;;;;;;5047441;28;20056;-58
2022/05/21 10:42:34;;;;;;;10.63;2.25;;;17.90;99.90;;;;;;5046376;28;20511;-57
2022/05/21 10:45:30;;;;;;;10.82;2.17;;;17.90;98.90;;;;;;5048432;28;20059;-57
2022/05/21 10:48:39;;;;;;;10.18;2.92;;;18.10;98.80;;;;;;5045190;28;20882;-58
2022/05/21 10:51:16;;;;;;;10.38;2.58;;;18.40;98.40;;;;;;5050311;28;20087;-57
2022/05/21 10:53:54;;;;;;;12.63;2.88;;;18.40;98.10;;;;;;5046823;28;20087;-58
2022/05/21 10:56:47;;;;;;;11.10;2.28;;;18.40;98.20;;;;;;5037439;28;20064;-58
2022/05/21 10:59:49;;;;;;;7.88;2.05;;;18.50;97.80;;;;;;5045087;28;20402;-58
2022/05/21 11:02:33;;;;;;;8.45;2.22;;;18.60;97.60;;;;;;5022234;28;20057;-57
2022/05/21 11:05:11;;;;;;;11.05;2.30;;;18.50;96.80;;;;;;5054458;28;20394;-58
2022/05/21 11:08:04;;;;;;;12.32;2.35;;;18.50;96.20;;;;;;5035659;28;20203;-59
2022/05/21 11:11:13;;;;;;;13.35;2.35;;;18.20;96.90;;;;;;5036861;28;20549;-57
2022/05/21 11:14:06;;;;;;;10.23;2.22;;;18.20;96.90;;;;;;5013132;28;20079;-57
2022/05/21 11:16:45;;;;;;;7.97;1.95;;;18.40;96.80;;;;;;5028423;28;20060;-58
2022/05/21 11:19:25;;;;;;;8.52;2.00;;;18.50;96.40;;;;;;4998100;28;20056;-58
2022/05/21 11:21:58;;;;;;;9.00;2.13;;;18.80;96.30;;;;;;5014214;28;20561;-57
2022/05/21 11:24:45;;;;;;;7.97;2.10;;;19.10;95.30;;;;;;5027362;28;20084;-59
2022/05/21 11:27:36;;;;;;;7.93;1.90;;;19.40;94.80;;;;;;5028717;28;20052;-58
2022/05/21 11:30:14;;;;;;;9.73;2.10;;;19.60;94.30;;;;;;5014890;28;20602;-58
2022/05/21 11:38:34;;;;;;;11.55;2.08;;;19.30;93.20;;;;;;5031062;28;20107;-58
2022/05/21 11:41:25;;;;;;;7.95;2.13;;;19.10;93.50;;;;;;5034374;28;20476;-57
2022/05/21 11:46:53;;;;;;;11.82;2.40;;;18.90;93.70;;;;;;5033342;28;20075;-58
2022/05/21 11:49:40;;;;;;;8.05;2.38;;;18.90;94.20;;;;;;5037070;28;20037;-58
2022/05/21 11:52:28;;;;;;;11.00;2.50;;;19.00;94.30;;;;;;5034351;28;20547;-59
2022/05/21 11:54:53;;;;;;;8.82;2.10;;;19.20;94.20;;;;;;5033163;28;20048;-58
2022/05/21 11:57:33;;;;;;;10.75;2.05;;;19.30;92.90;;;;;;5033911;28;20041;-59
2022/05/21 12:00:00;;;;;;;11.52;2.55;;;19.50;92.70;;;;;;5032345;28;20100;-58
2022/05/21 12:02:30;;;;;;;10.02;2.05;;;19.60;91.70;;;;;;5035480;28;20041;-57
2022/05/21 12:05:05;;;;;;;6.40;1.90;;;19.90;91.80;;;;;;5036502;28;20051;-58
2022/05/21 12:07:48;;;;;;;11.30;2.28;;;20.10;90.80;;;;;;5052870;28;20143;-57
2022/05/21 12:10:52;;;;;;;9.85;2.00;;;20.20;90.60;;;;;;5056024;28;20192;-56
2022/05/21 12:13:21;;;;;;;5.43;2.17;;;20.20;87.20;;;;;;5034916;28;20098;-58
2022/05/21 12:15:53;;;;;;;10.68;2.40;;;20.20;86.40;;;;;;5056254;28;20475;-57
2022/05/21 12:18:26;;;;;;;9.63;1.98;;;20.50;85.90;;;;;;5039819;28;20444;-58
2022/05/21 12:20:52;;;;;;;7.85;2.05;;;20.60;86.50;;;;;;5053660;28;20048;-57
2022/05/21 12:23:31;;;;;;;7.18;1.70;;;20.80;84.40;;;;;;5037857;28;20044;-58
2022/05/21 12:26:23;;;;;;;6.72;1.98;;;21.00;83.80;;;;;;5050916;28;20037;-58
2022/05/21 12:29:09;;;;;;;10.63;2.23;;;21.10;80.30;;;;;;5049029;28;20122;-59
2022/05/21 12:31:43;;;;;;;9.70;1.92;;;21.10;80.90;;;;;;5054499;28;20041;-59
2022/05/21 12:34:35;;;;;;;9.07;2.00;;;21.40;81.60;;;;;;5036402;28;20096;-59
2022/05/21 12:37:47;;;;;;;7.28;1.88;;;21.70;82.00;;;;;;5052284;28;20049;-58
2022/05/21 12:40:29;;;;;;;7.15;1.45;;;21.90;79.60;;;;;;5049567;28;20052;-58
2022/05/21 12:43:13;;;;;;;6.22;1.50;;;22.00;79.60;;;;;;5054326;28;20044;-59
2022/05/21 12:45:49;;;;;;;7.90;1.80;;;21.90;77.30;;;;;;5052837;28;20051;-56
2022/05/21 12:48:31;;;;;;;8.60;1.60;;;21.90;77.30;;;;;;5050068;28;20044;-58
2022/05/21 12:51:02;;;;;;;9.17;2.00;;;21.90;76.00;;;;;;5047553;28;20146;-59
2022/05/21 12:53:47;;;;;;;7.15;1.70;;;21.90;76.40;;;;;;5051785;28;20318;-58
2022/05/21 12:56:12;;;;;;;7.05;1.50;;;21.80;74.80;;;;;;5051888;28;20422;-58
2022/05/21 12:58:39;;;;;;;3.72;1.15;;;21.70;74.80;;;;;;5051673;28;20050;-59
2022/05/21 13:01:05;;;;;;;5.88;1.75;;;21.60;74.60;;;;;;5052140;28;20058;-58
2022/05/21 13:03:34;;;;;;;8.70;1.80;;;21.60;75.00;;;;;;5039400;28;20044;-59
2022/05/21 13:06:06;;;;;;;6.85;1.45;;;21.60;74.10;;;;;;5048223;28;20061;-59
2022/05/21 13:08:34;;;;;;;;;;;21.20;74.20;;;;;;5039502;28;20059;-59
2022/05/21 13:11:17;;;;;;;6.43;1.65;;;21.10;75.80;;;;;;5040160;28;19921;-58
2022/05/21 13:13:48;;;;;;;5.50;1.65;;;21.10;75.00;;;;;;5039956;28;20068;-57
2022/05/21 13:16:17;;;;;;;4.82;1.35;;;21.20;74.10;;;;;;5034046;28;20033;-59
2022/05/21 13:19:07;;;;;;;9.77;1.48;;;21.30;73.10;;;;;;5040265;28;20041;-58
2022/05/21 13:21:54;;;;;;;11.30;2.10;;;21.50;73.00;;;;;;5026822;28;20132;-58
2022/05/21 13:24:38;;;;;;;5.10;1.50;;;21.70;71.50;;;;;;5022751;28;20049;-58
2022/05/21 13:27:20;;;;;;;5.55;1.73;;;21.90;72.60;;;;;;5026639;28;20087;-59
2022/05/21 13:29:48;;;;;;;7.25;1.60;;;21.90;72.50;;;;;;5037857;28;20209;-58
2022/05/21 13:32:25;;;;;;;7.18;1.35;;;22.00;71.50;;;;;;5026459;28;20407;-59